sensor_id;sensor_type;location;lat;lon;timestamp;P1;durP1;ratioP1;P2;durP2;ratioP2
21438;SDS011;10880;50.302;18.736;2023-02-21T00:00:10;3.23;;;2.57;;
21438;SDS011;10880;50.302;18.736;2023-02-21T00:02:55;3.90;;;2.20;;
21438;SDS011;10880;50.302;18.736;2023-02-21T00:05:40;2.83;;;2.33;;
21438;SDS011;10880;50.302;18.736;2023-02-21T00:08:26;4.20;;;2.47;;
21438;SDS011;10880;50.302;18.736;2023-02-21T00:11:11;2.37;;;2.17;;
21438;SDS011;10880;50.302;18.736;2023-02-21T00:13:55;2.20;;;2.00;;
21438;SDS011;10880;50.302;18.736;2023-02-21T00:16:43;2.60;;;2.40;;
21438;SDS011;10880;50.302;18.736;2023-02-21T00:19:29;2.30;;;2.10;;
21438;SDS011;10880;50.302;18.736;2023-02-21T00:22:14;6.73;;;2.53;;
21438;SDS011;10880;50.302;18.736;2023-02-21T00:25:00;2.60;;;2.40;;
21438;SDS011;10880;50.302;18.736;2023-02-21T00:27:45;2.20;;;2.00;;
21438;SDS011;10880;50.302;18.736;2023-02-21T00:30:30;2.07;;;1.90;;
21438;SDS011;10880;50.302;18.736;2023-02-21T00:33:16;2.50;;;2.20;;
21438;SDS011;10880;50.302;18.736;2023-02-21T00:36:02;2.13;;;1.97;;
21438;SDS011;10880;50.302;18.736;2023-02-21T00:38:46;1.90;;;1.80;;
21438;SDS011;10880;50.302;18.736;2023-02-21T00:41:32;2.50;;;2.10;;
21438;SDS011;10880;50.302;18.736;2023-02-21T00:44:17;5.53;;;2.10;;
21438;SDS011;10880;50.302;18.736;2023-02-21T00:47:02;3.30;;;2.00;;
21438;SDS011;10880;50.302;18.736;2023-02-21T00:49:48;3.20;;;2.10;;
21438;SDS011;10880;50.302;18.736;2023-02-21T00:52:33;2.10;;;2.00;;
21438;SDS011;10880;50.302;18.736;2023-02-21T00:55:18;2.37;;;2.17;;
21438;SDS011;10880;50.302;18.736;2023-02-21T00:58:03;2.00;;;1.80;;
21438;SDS011;10880;50.302;18.736;2023-02-21T01:00:49;2.03;;;1.90;;
21438;SDS011;10880;50.302;18.736;2023-02-21T01:03:34;2.50;;;1.90;;
21438;SDS011;10880;50.302;18.736;2023-02-21T01:06:19;1.90;;;1.80;;
21438;SDS011;10880;50.302;18.736;2023-02-21T01:09:04;2.90;;;2.10;;
21438;SDS011;10880;50.302;18.736;2023-02-21T01:11:49;2.80;;;2.37;;
21438;SDS011;10880;50.302;18.736;2023-02-21T01:14:34;2.30;;;2.10;;
21438;SDS011;10880;50.302;18.736;2023-02-21T01:17:19;2.00;;;1.90;;
21438;SDS011;10880;50.302;18.736;2023-02-21T01:20:05;2.20;;;2.00;;
21438;SDS011;10880;50.302;18.736;2023-02-21T01:22:50;2.40;;;2.20;;
21438;SDS011;10880;50.302;18.736;2023-02-21T01:25:35;2.57;;;2.23;;
21438;SDS011;10880;50.302;18.736;2023-02-21T01:28:21;2.10;;;2.00;;
21438;SDS011;10880;50.302;18.736;2023-02-21T01:31:06;2.27;;;1.97;;
21438;SDS011;10880;50.302;18.736;2023-02-21T01:33:51;2.10;;;1.90;;
21438;SDS011;10880;50.302;18.736;2023-02-21T01:36:39;1.70;;;1.60;;
21438;SDS011;10880;50.302;18.736;2023-02-21T01:39:24;1.87;;;1.77;;
21438;SDS011;10880;50.302;18.736;2023-02-21T01:42:10;2.10;;;2.00;;
21438;SDS011;10880;50.302;18.736;2023-02-21T01:48:08;2.30;;;2.10;;
21438;SDS011;10880;50.302;18.736;2023-02-21T01:50:59;1.87;;;1.77;;
21438;SDS011;10880;50.302;18.736;2023-02-21T01:53:47;2.33;;;2.13;;
21438;SDS011;10880;50.302;18.736;2023-02-21T01:56:32;2.27;;;2.07;;
21438;SDS011;10880;50.302;18.736;2023-02-21T01:59:21;2.30;;;2.10;;
21438;SDS011;10880;50.302;18.736;2023-02-21T02:02:24;1.90;;;1.80;;
21438;SDS011;10880;50.302;18.736;2023-02-21T02:05:11;2.20;;;2.00;;
21438;SDS011;10880;50.302;18.736;2023-02-21T02:07:57;1.93;;;1.83;;
21438;SDS011;10880;50.302;18.736;2023-02-21T02:10:43;2.10;;;2.00;;
21438;SDS011;10880;50.302;18.736;2023-02-21T02:16:15;1.80;;;1.70;;
21438;SDS011;10880;50.302;18.736;2023-02-21T02:36:20;2.00;;;1.90;;
21438;SDS011;10880;50.302;18.736;2023-02-21T02:39:01;2.30;;;2.10;;
21438;SDS011;10880;50.302;18.736;2023-02-21T02:44:27;2.53;;;2.10;;
21438;SDS011;10880;50.302;18.736;2023-02-21T02:47:07;3.53;;;2.30;;
21438;SDS011;10880;50.302;18.736;2023-02-21T02:49:43;2.10;;;1.90;;
21438;SDS011;10880;50.302;18.736;2023-02-21T02:52:11;2.17;;;1.70;;
21438;SDS011;10880;50.302;18.736;2023-02-21T02:54:37;2.30;;;2.10;;
21438;SDS011;10880;50.302;18.736;2023-02-21T02:57:04;2.20;;;1.97;;
21438;SDS011;10880;50.302;18.736;2023-02-21T02:59:39;2.70;;;2.20;;
21438;SDS011;10880;50.302;18.736;2023-02-21T03:07:57;2.30;;;2.10;;
21438;SDS011;10880;50.302;18.736;2023-02-21T03:10:47;2.30;;;2.10;;
21438;SDS011;10880;50.302;18.736;2023-02-21T03:13:51;2.50;;;2.30;;
21438;SDS011;10880;50.302;18.736;2023-02-21T03:16:28;2.30;;;2.10;;
21438;SDS011;10880;50.302;18.736;2023-02-21T03:19:00;2.43;;;2.10;;
21438;SDS011;10880;50.302;18.736;2023-02-21T03:21:35;2.37;;;2.17;;
21438;SDS011;10880;50.302;18.736;2023-02-21T03:24:17;2.27;;;2.10;;
21438;SDS011;10880;50.302;18.736;2023-02-21T03:26:47;2.07;;;1.97;;
21438;SDS011;10880;50.302;18.736;2023-02-21T03:29:59;1.90;;;1.80;;
21438;SDS011;10880;50.302;18.736;2023-02-21T03:32:40;2.20;;;2.00;;
21438;SDS011;10880;50.302;18.736;2023-02-21T03:35:12;2.23;;;1.97;;
21438;SDS011;10880;50.302;18.736;2023-02-21T03:37:40;2.00;;;1.90;;
21438;SDS011;10880;50.302;18.736;2023-02-21T03:40:10;2.20;;;2.10;;
21438;SDS011;10880;50.302;18.736;2023-02-21T03:43:04;2.10;;;2.00;;
21438;SDS011;10880;50.302;18.736;2023-02-21T03:45:37;2.50;;;2.30;;
21438;SDS011;10880;50.302;18.736;2023-02-21T03:48:10;2.33;;;2.13;;
21438;SDS011;10880;50.302;18.736;2023-02-21T03:50:40;2.87;;;2.67;;
21438;SDS011;10880;50.302;18.736;2023-02-21T03:53:08;3.00;;;2.50;;
21438;SDS011;10880;50.302;18.736;2023-02-21T03:55:36;2.63;;;2.20;;
21438;SDS011;10880;50.302;18.736;2023-02-21T03:58:08;3.27;;;2.50;;
21438;SDS011;10880;50.302;18.736;2023-02-21T04:00:36;2.40;;;2.20;;
21438;SDS011;10880;50.302;18.736;2023-02-21T04:03:03;2.30;;;2.20;;
21438;SDS011;10880;50.302;18.736;2023-02-21T04:05:33;2.50;;;2.30;;
21438;SDS011;10880;50.302;18.736;2023-02-21T04:08:00;2.60;;;2.40;;
21438;SDS011;10880;50.302;18.736;2023-02-21T04:10:27;3.10;;;2.60;;
21438;SDS011;10880;50.302;18.736;2023-02-21T04:12:55;2.27;;;2.07;;
21438;SDS011;10880;50.302;18.736;2023-02-21T04:15:21;2.40;;;2.20;;
21438;SDS011;10880;50.302;18.736;2023-02-21T04:17:48;2.53;;;2.33;;
21438;SDS011;10880;50.302;18.736;2023-02-21T04:20:15;2.83;;;2.60;;
21438;SDS011;10880;50.302;18.736;2023-02-21T04:22:47;2.70;;;2.50;;
21438;SDS011;10880;50.302;18.736;2023-02-21T04:25:13;3.27;;;2.20;;
21438;SDS011;10880;50.302;18.736;2023-02-21T04:27:47;2.37;;;2.17;;
21438;SDS011;10880;50.302;18.736;2023-02-21T04:30:14;2.13;;;2.03;;
21438;SDS011;10880;50.302;18.736;2023-02-21T04:32:40;1.97;;;1.80;;
21438;SDS011;10880;50.302;18.736;2023-02-21T04:35:11;2.03;;;1.93;;
21438;SDS011;10880;50.302;18.736;2023-02-21T04:37:38;2.83;;;2.40;;
21438;SDS011;10880;50.302;18.736;2023-02-21T04:40:05;2.30;;;2.10;;
21438;SDS011;10880;50.302;18.736;2023-02-21T04:42:34;3.17;;;2.70;;
21438;SDS011;10880;50.302;18.736;2023-02-21T04:45:01;3.20;;;2.30;;
21438;SDS011;10880;50.302;18.736;2023-02-21T04:47:29;2.33;;;2.13;;
21438;SDS011;10880;50.302;18.736;2023-02-21T04:49:56;2.77;;;2.30;;
21438;SDS011;10880;50.302;18.736;2023-02-21T04:52:23;2.33;;;2.13;;
21438;SDS011;10880;50.302;18.736;2023-02-21T04:54:50;3.00;;;2.37;;
21438;SDS011;10880;50.302;18.736;2023-02-21T04:57:17;2.80;;;2.37;;
21438;SDS011;10880;50.302;18.736;2023-02-21T04:59:43;3.73;;;2.10;;
21438;SDS011;10880;50.302;18.736;2023-02-21T05:02:10;2.87;;;2.17;;
21438;SDS011;10880;50.302;18.736;2023-02-21T05:04:36;2.07;;;1.97;;
21438;SDS011;10880;50.302;18.736;2023-02-21T05:07:03;2.17;;;2.07;;
21438;SDS011;10880;50.302;18.736;2023-02-21T05:09:30;2.53;;;2.20;;
21438;SDS011;10880;50.302;18.736;2023-02-21T05:11:57;2.50;;;2.30;;
21438;SDS011;10880;50.302;18.736;2023-02-21T05:14:23;2.70;;;2.30;;
21438;SDS011;10880;50.302;18.736;2023-02-21T05:16:50;2.43;;;2.07;;
21438;SDS011;10880;50.302;18.736;2023-02-21T05:19:17;1.90;;;1.80;;
21438;SDS011;10880;50.302;18.736;2023-02-21T05:21:55;3.73;;;2.10;;
21438;SDS011;10880;50.302;18.736;2023-02-21T05:24:26;2.60;;;2.40;;
21438;SDS011;10880;50.302;18.736;2023-02-21T05:26:54;2.23;;;2.03;;
21438;SDS011;10880;50.302;18.736;2023-02-21T05:29:21;2.20;;;2.10;;
21438;SDS011;10880;50.302;18.736;2023-02-21T05:31:48;2.40;;;2.20;;
21438;SDS011;10880;50.302;18.736;2023-02-21T05:34:15;2.47;;;1.90;;
21438;SDS011;10880;50.302;18.736;2023-02-21T05:36:44;2.00;;;1.90;;
21438;SDS011;10880;50.302;18.736;2023-02-21T05:39:11;2.33;;;2.13;;
21438;SDS011;10880;50.302;18.736;2023-02-21T05:41:37;2.47;;;2.17;;
21438;SDS011;10880;50.302;18.736;2023-02-21T05:44:04;2.20;;;2.00;;
21438;SDS011;10880;50.302;18.736;2023-02-21T05:46:32;2.40;;;2.20;;
21438;SDS011;10880;50.302;18.736;2023-02-21T05:49:00;2.47;;;2.27;;
21438;SDS011;10880;50.302;18.736;2023-02-21T05:51:38;2.77;;;2.30;;
21438;SDS011;10880;50.302;18.736;2023-02-21T05:54:07;2.57;;;2.37;;
21438;SDS011;10880;50.302;18.736;2023-02-21T05:56:38;2.50;;;2.40;;
21438;SDS011;10880;50.302;18.736;2023-02-21T05:59:07;2.87;;;2.37;;
21438;SDS011;10880;50.302;18.736;2023-02-21T06:01:34;2.70;;;2.50;;
21438;SDS011;10880;50.302;18.736;2023-02-21T06:04:01;2.13;;;2.03;;
21438;SDS011;10880;50.302;18.736;2023-02-21T06:06:27;2.50;;;2.30;;
21438;SDS011;10880;50.302;18.736;2023-02-21T06:08:53;2.20;;;2.10;;
21438;SDS011;10880;50.302;18.736;2023-02-21T06:11:24;2.30;;;2.10;;
21438;SDS011;10880;50.302;18.736;2023-02-21T06:13:56;2.47;;;2.27;;
21438;SDS011;10880;50.302;18.736;2023-02-21T06:16:24;2.83;;;2.30;;
21438;SDS011;10880;50.302;18.736;2023-02-21T06:18:52;2.73;;;2.43;;
21438;SDS011;10880;50.302;18.736;2023-02-21T06:21:20;2.80;;;2.57;;
21438;SDS011;10880;50.302;18.736;2023-02-21T06:23:47;2.60;;;2.40;;
21438;SDS011;10880;50.302;18.736;2023-02-21T06:26:14;2.80;;;2.43;;
21438;SDS011;10880;50.302;18.736;2023-02-21T06:28:42;2.30;;;2.10;;
21438;SDS011;10880;50.302;18.736;2023-02-21T06:31:08;2.33;;;2.13;;
21438;SDS011;10880;50.302;18.736;2023-02-21T06:33:35;2.40;;;2.20;;
21438;SDS011;10880;50.302;18.736;2023-02-21T06:36:05;2.03;;;1.90;;
21438;SDS011;10880;50.302;18.736;2023-02-21T06:38:36;2.40;;;2.20;;
21438;SDS011;10880;50.302;18.736;2023-02-21T06:41:06;2.53;;;2.33;;
21438;SDS011;10880;50.302;18.736;2023-02-21T06:43:34;2.40;;;2.20;;
21438;SDS011;10880;50.302;18.736;2023-02-21T06:46:04;2.60;;;2.40;;
21438;SDS011;10880;50.302;18.736;2023-02-21T06:48:30;2.40;;;2.20;;
21438;SDS011;10880;50.302;18.736;2023-02-21T06:50:57;3.10;;;2.60;;
21438;SDS011;10880;50.302;18.736;2023-02-21T06:53:23;4.50;;;2.83;;
21438;SDS011;10880;50.302;18.736;2023-02-21T06:55:50;3.03;;;2.60;;
21438;SDS011;10880;50.302;18.736;2023-02-21T06:58:17;3.23;;;2.53;;
21438;SDS011;10880;50.302;18.736;2023-02-21T07:00:46;2.40;;;2.20;;
21438;SDS011;10880;50.302;18.736;2023-02-21T07:03:13;2.80;;;2.50;;
21438;SDS011;10880;50.302;18.736;2023-02-21T07:05:40;2.47;;;2.23;;
21438;SDS011;10880;50.302;18.736;2023-02-21T07:08:07;2.50;;;2.30;;
21438;SDS011;10880;50.302;18.736;2023-02-21T07:10:34;2.80;;;2.53;;
21438;SDS011;10880;50.302;18.736;2023-02-21T07:13:00;2.50;;;2.30;;
21438;SDS011;10880;50.302;18.736;2023-02-21T07:15:27;2.60;;;2.40;;
21438;SDS011;10880;50.302;18.736;2023-02-21T07:17:54;2.70;;;2.50;;
21438;SDS011;10880;50.302;18.736;2023-02-21T07:20:20;2.30;;;2.10;;
21438;SDS011;10880;50.302;18.736;2023-02-21T07:22:47;2.83;;;2.60;;
21438;SDS011;10880;50.302;18.736;2023-02-21T07:25:16;3.70;;;2.90;;
21438;SDS011;10880;50.302;18.736;2023-02-21T07:27:46;3.00;;;2.67;;
21438;SDS011;10880;50.302;18.736;2023-02-21T07:30:14;3.13;;;2.37;;
21438;SDS011;10880;50.302;18.736;2023-02-21T07:32:42;5.80;;;3.67;;
21438;SDS011;10880;50.302;18.736;2023-02-21T07:35:11;3.87;;;3.00;;
21438;SDS011;10880;50.302;18.736;2023-02-21T07:37:37;3.60;;;2.93;;
21438;SDS011;10880;50.302;18.736;2023-02-21T07:40:05;4.27;;;2.73;;
21438;SDS011;10880;50.302;18.736;2023-02-21T07:42:32;4.73;;;3.07;;
21438;SDS011;10880;50.302;18.736;2023-02-21T07:44:59;7.10;;;3.60;;
21438;SDS011;10880;50.302;18.736;2023-02-21T07:47:26;5.70;;;3.33;;
21438;SDS011;10880;50.302;18.736;2023-02-21T07:49:53;4.00;;;2.80;;
21438;SDS011;10880;50.302;18.736;2023-02-21T07:52:20;3.40;;;2.50;;
21438;SDS011;10880;50.302;18.736;2023-02-21T07:54:47;2.03;;;1.93;;
21438;SDS011;10880;50.302;18.736;2023-02-21T07:57:14;3.53;;;2.63;;
21438;SDS011;10880;50.302;18.736;2023-02-21T07:59:42;4.80;;;2.80;;
21438;SDS011;10880;50.302;18.736;2023-02-21T08:02:12;6.10;;;3.30;;
21438;SDS011;10880;50.302;18.736;2023-02-21T08:04:40;5.10;;;2.80;;
21438;SDS011;10880;50.302;18.736;2023-02-21T08:07:07;2.40;;;2.20;;
21438;SDS011;10880;50.302;18.736;2023-02-21T08:09:34;2.53;;;2.33;;
21438;SDS011;10880;50.302;18.736;2023-02-21T08:12:01;2.40;;;2.20;;
21438;SDS011;10880;50.302;18.736;2023-02-21T08:14:28;2.40;;;2.20;;
21438;SDS011;10880;50.302;18.736;2023-02-21T08:16:55;2.90;;;2.70;;
21438;SDS011;10880;50.302;18.736;2023-02-21T08:19:21;3.00;;;2.20;;
21438;SDS011;10880;50.302;18.736;2023-02-21T08:21:48;5.27;;;3.20;;
21438;SDS011;10880;50.302;18.736;2023-02-21T08:24:16;5.10;;;3.50;;
21438;SDS011;10880;50.302;18.736;2023-02-21T08:26:43;3.97;;;3.00;;
21438;SDS011;10880;50.302;18.736;2023-02-21T08:29:11;2.97;;;2.60;;
21438;SDS011;10880;50.302;18.736;2023-02-21T08:31:39;2.87;;;2.67;;
21438;SDS011;10880;50.302;18.736;2023-02-21T08:34:07;3.07;;;2.87;;
21438;SDS011;10880;50.302;18.736;2023-02-21T08:36:34;3.30;;;3.00;;
21438;SDS011;10880;50.302;18.736;2023-02-21T08:39:03;2.50;;;2.30;;
21438;SDS011;10880;50.302;18.736;2023-02-21T08:41:41;3.00;;;2.70;;
21438;SDS011;10880;50.302;18.736;2023-02-21T08:44:10;2.80;;;2.50;;
21438;SDS011;10880;50.302;18.736;2023-02-21T08:46:41;2.80;;;2.60;;
21438;SDS011;10880;50.302;18.736;2023-02-21T08:49:13;2.63;;;2.43;;
21438;SDS011;10880;50.302;18.736;2023-02-21T08:51:40;3.33;;;2.50;;
21438;SDS011;10880;50.302;18.736;2023-02-21T08:54:07;2.73;;;2.53;;
21438;SDS011;10880;50.302;18.736;2023-02-21T08:56:34;3.07;;;2.77;;
21438;SDS011;10880;50.302;18.736;2023-02-21T08:59:01;3.53;;;3.10;;
21438;SDS011;10880;50.302;18.736;2023-02-21T09:01:31;6.53;;;3.70;;
21438;SDS011;10880;50.302;18.736;2023-02-21T09:04:00;6.77;;;3.53;;
21438;SDS011;10880;50.302;18.736;2023-02-21T09:06:29;4.77;;;2.80;;
21438;SDS011;10880;50.302;18.736;2023-02-21T09:08:56;3.33;;;2.93;;
21438;SDS011;10880;50.302;18.736;2023-02-21T09:11:22;2.90;;;2.70;;
21438;SDS011;10880;50.302;18.736;2023-02-21T09:13:49;2.63;;;2.33;;
21438;SDS011;10880;50.302;18.736;2023-02-21T09:16:17;2.70;;;2.50;;
21438;SDS011;10880;50.302;18.736;2023-02-21T09:18:51;2.87;;;2.57;;
21438;SDS011;10880;50.302;18.736;2023-02-21T09:21:21;4.07;;;3.07;;
21438;SDS011;10880;50.302;18.736;2023-02-21T09:23:50;5.07;;;3.87;;
21438;SDS011;10880;50.302;18.736;2023-02-21T09:26:18;4.87;;;3.37;;
21438;SDS011;10880;50.302;18.736;2023-02-21T09:28:49;3.40;;;3.00;;
21438;SDS011;10880;50.302;18.736;2023-02-21T09:31:19;3.77;;;3.37;;
21438;SDS011;10880;50.302;18.736;2023-02-21T09:33:46;2.90;;;2.60;;
21438;SDS011;10880;50.302;18.736;2023-02-21T09:36:12;2.50;;;2.30;;
21438;SDS011;10880;50.302;18.736;2023-02-21T09:38:39;2.37;;;2.17;;
21438;SDS011;10880;50.302;18.736;2023-02-21T09:41:07;3.20;;;2.90;;
21438;SDS011;10880;50.302;18.736;2023-02-21T09:43:38;2.63;;;2.40;;
21438;SDS011;10880;50.302;18.736;2023-02-21T09:46:17;3.27;;;2.80;;
21438;SDS011;10880;50.302;18.736;2023-02-21T09:48:51;4.43;;;3.77;;
21438;SDS011;10880;50.302;18.736;2023-02-21T09:51:19;7.13;;;5.10;;
21438;SDS011;10880;50.302;18.736;2023-02-21T09:53:46;4.80;;;3.80;;
21438;SDS011;10880;50.302;18.736;2023-02-21T09:58:48;4.10;;;3.70;;
21438;SDS011;10880;50.302;18.736;2023-02-21T10:06:58;3.67;;;2.90;;
21438;SDS011;10880;50.302;18.736;2023-02-21T10:12:15;3.07;;;2.77;;
21438;SDS011;10880;50.302;18.736;2023-02-21T10:20:31;3.07;;;2.33;;
21438;SDS011;10880;50.302;18.736;2023-02-21T10:23:06;2.50;;;2.30;;
21438;SDS011;10880;50.302;18.736;2023-02-21T10:25:43;2.37;;;2.17;;
21438;SDS011;10880;50.302;18.736;2023-02-21T10:28:16;3.03;;;2.60;;
21438;SDS011;10880;50.302;18.736;2023-02-21T10:30:48;2.47;;;2.27;;
21438;SDS011;10880;50.302;18.736;2023-02-21T10:33:19;2.93;;;2.47;;
21438;SDS011;10880;50.302;18.736;2023-02-21T10:35:46;2.30;;;2.10;;
21438;SDS011;10880;50.302;18.736;2023-02-21T10:38:14;2.10;;;2.00;;
21438;SDS011;10880;50.302;18.736;2023-02-21T10:45:46;4.57;;;2.50;;
21438;SDS011;10880;50.302;18.736;2023-02-21T10:48:23;2.23;;;2.10;;
21438;SDS011;10880;50.302;18.736;2023-02-21T10:53:37;2.90;;;2.70;;
21438;SDS011;10880;50.302;18.736;2023-02-21T10:56:30;3.40;;;2.60;;
21438;SDS011;10880;50.302;18.736;2023-02-21T10:58:59;3.10;;;2.80;;
21438;SDS011;10880;50.302;18.736;2023-02-21T11:01:32;3.27;;;2.63;;
21438;SDS011;10880;50.302;18.736;2023-02-21T11:06:47;4.60;;;3.13;;
21438;SDS011;10880;50.302;18.736;2023-02-21T11:17:22;3.30;;;2.90;;
21438;SDS011;10880;50.302;18.736;2023-02-21T11:20:35;3.17;;;2.70;;
21438;SDS011;10880;50.302;18.736;2023-02-21T11:22:45;2.97;;;2.70;;
21438;SDS011;10880;50.302;18.736;2023-02-21T11:25:18;2.60;;;2.40;;
21438;SDS011;10880;50.302;18.736;2023-02-21T11:30:41;2.60;;;2.40;;
21438;SDS011;10880;50.302;18.736;2023-02-21T11:33:29;3.07;;;2.73;;
21438;SDS011;10880;50.302;18.736;2023-02-21T11:36:16;3.27;;;2.97;;
21438;SDS011;10880;50.302;18.736;2023-02-21T11:39:06;2.90;;;2.67;;
21438;SDS011;10880;50.302;18.736;2023-02-21T11:41:53;4.17;;;3.77;;
21438;SDS011;10880;50.302;18.736;2023-02-21T11:44:22;4.37;;;3.97;;
21438;SDS011;10880;50.302;18.736;2023-02-21T11:46:57;3.60;;;3.30;;
21438;SDS011;10880;50.302;18.736;2023-02-21T11:49:40;3.00;;;2.80;;
21438;SDS011;10880;50.302;18.736;2023-02-21T11:52:14;3.27;;;2.57;;
21438;SDS011;10880;50.302;18.736;2023-02-21T11:54:49;2.67;;;2.47;;
21438;SDS011;10880;50.302;18.736;2023-02-21T11:57:19;2.53;;;2.33;;
21438;SDS011;10880;50.302;18.736;2023-02-21T12:00:10;2.67;;;2.47;;
21438;SDS011;10880;50.302;18.736;2023-02-21T12:08:31;2.07;;;1.90;;
21438;SDS011;10880;50.302;18.736;2023-02-21T12:11:24;2.37;;;2.23;;
21438;SDS011;10880;50.302;18.736;2023-02-21T12:14:10;2.30;;;2.10;;
21438;SDS011;10880;50.302;18.736;2023-02-21T12:28:00;2.10;;;2.00;;
21438;SDS011;10880;50.302;18.736;2023-02-21T12:36:14;3.23;;;2.93;;
21438;SDS011;10880;50.302;18.736;2023-02-21T12:39:02;2.40;;;2.20;;
21438;SDS011;10880;50.302;18.736;2023-02-21T12:41:48;3.40;;;2.87;;
21438;SDS011;10880;50.302;18.736;2023-02-21T12:44:21;2.73;;;2.53;;
21438;SDS011;10880;50.302;18.736;2023-02-21T12:47:02;2.83;;;2.63;;
21438;SDS011;10880;50.302;18.736;2023-02-21T12:49:43;2.37;;;2.17;;
21438;SDS011;10880;50.302;18.736;2023-02-21T12:55:05;2.33;;;2.13;;
21438;SDS011;10880;50.302;18.736;2023-02-21T12:57:35;3.03;;;2.70;;
21438;SDS011;10880;50.302;18.736;2023-02-21T13:00:17;2.90;;;2.70;;
21438;SDS011;10880;50.302;18.736;2023-02-21T13:05:43;3.33;;;3.03;;
21438;SDS011;10880;50.302;18.736;2023-02-21T13:08:16;4.13;;;3.50;;
21438;SDS011;10880;50.302;18.736;2023-02-21T13:13:28;3.67;;;3.33;;
21438;SDS011;10880;50.302;18.736;2023-02-21T13:15:57;3.70;;;3.40;;
21438;SDS011;10880;50.302;18.736;2023-02-21T13:23:58;2.80;;;2.60;;
21438;SDS011;10880;50.302;18.736;2023-02-21T13:29:41;3.60;;;3.30;;
21438;SDS011;10880;50.302;18.736;2023-02-21T13:32:16;3.63;;;3.33;;
21438;SDS011;10880;50.302;18.736;2023-02-21T13:34:58;3.63;;;3.33;;
21438;SDS011;10880;50.302;18.736;2023-02-21T13:37:28;3.20;;;2.90;;
21438;SDS011;10880;50.302;18.736;2023-02-21T13:40:03;3.70;;;3.40;;
21438;SDS011;10880;50.302;18.736;2023-02-21T13:43:01;3.90;;;3.30;;
21438;SDS011;10880;50.302;18.736;2023-02-21T13:45:37;6.20;;;4.77;;
21438;SDS011;10880;50.302;18.736;2023-02-21T13:56:11;3.73;;;3.00;;
21438;SDS011;10880;50.302;18.736;2023-02-21T13:58:43;2.93;;;2.67;;
21438;SDS011;10880;50.302;18.736;2023-02-21T14:03:55;2.60;;;2.40;;
21438;SDS011;10880;50.302;18.736;2023-02-21T14:06:35;2.10;;;2.00;;
21438;SDS011;10880;50.302;18.736;2023-02-21T14:09:12;2.53;;;2.33;;
21438;SDS011;10880;50.302;18.736;2023-02-21T14:11:46;2.40;;;2.20;;
21438;SDS011;10880;50.302;18.736;2023-02-21T14:14:20;2.37;;;2.17;;
21438;SDS011;10880;50.302;18.736;2023-02-21T14:16:57;2.47;;;2.27;;
21438;SDS011;10880;50.302;18.736;2023-02-21T14:22:10;2.47;;;2.27;;
21438;SDS011;10880;50.302;18.736;2023-02-21T14:24:49;4.07;;;2.50;;
21438;SDS011;10880;50.302;18.736;2023-02-21T14:32:38;3.00;;;2.70;;
21438;SDS011;10880;50.302;18.736;2023-02-21T14:35:28;4.73;;;2.90;;
21438;SDS011;10880;50.302;18.736;2023-02-21T14:38:01;2.73;;;2.40;;
21438;SDS011;10880;50.302;18.736;2023-02-21T14:43:19;4.57;;;3.27;;
21438;SDS011;10880;50.302;18.736;2023-02-21T14:54:50;2.43;;;2.30;;
21438;SDS011;10880;50.302;18.736;2023-02-21T15:00:19;2.60;;;2.40;;
21438;SDS011;10880;50.302;18.736;2023-02-21T15:03:11;2.60;;;2.40;;
21438;SDS011;10880;50.302;18.736;2023-02-21T15:08:16;3.47;;;3.00;;
21438;SDS011;10880;50.302;18.736;2023-02-21T15:10:50;2.73;;;2.53;;
21438;SDS011;10880;50.302;18.736;2023-02-21T15:16:07;3.10;;;2.80;;
21438;SDS011;10880;50.302;18.736;2023-02-21T15:18:41;3.17;;;2.87;;
21438;SDS011;10880;50.302;18.736;2023-02-21T15:21:25;3.40;;;3.10;;
21438;SDS011;10880;50.302;18.736;2023-02-21T15:23:59;3.50;;;3.20;;
21438;SDS011;10880;50.302;18.736;2023-02-21T15:26:29;3.80;;;3.40;;
21438;SDS011;10880;50.302;18.736;2023-02-21T15:31:35;4.23;;;3.47;;
21438;SDS011;10880;50.302;18.736;2023-02-21T15:34:19;3.60;;;3.30;;
21438;SDS011;10880;50.302;18.736;2023-02-21T15:37:14;4.33;;;3.93;;
21438;SDS011;10880;50.302;18.736;2023-02-21T15:40:01;4.90;;;3.97;;
21438;SDS011;10880;50.302;18.736;2023-02-21T15:42:37;6.27;;;4.07;;
21438;SDS011;10880;50.302;18.736;2023-02-21T15:45:07;4.77;;;3.90;;
21438;SDS011;10880;50.302;18.736;2023-02-21T15:47:48;5.27;;;3.50;;
21438;SDS011;10880;50.302;18.736;2023-02-21T15:52:47;4.07;;;3.23;;
21438;SDS011;10880;50.302;18.736;2023-02-21T16:00:33;4.33;;;3.50;;
21438;SDS011;10880;50.302;18.736;2023-02-21T16:05:55;5.90;;;3.97;;
21438;SDS011;10880;50.302;18.736;2023-02-21T16:08:35;10.10;;;5.23;;
21438;SDS011;10880;50.302;18.736;2023-02-21T16:11:07;9.87;;;5.30;;
21438;SDS011;10880;50.302;18.736;2023-02-21T16:13:35;12.03;;;5.33;;
21438;SDS011;10880;50.302;18.736;2023-02-21T16:16:05;6.77;;;3.97;;
21438;SDS011;10880;50.302;18.736;2023-02-21T16:18:41;5.83;;;3.60;;
21438;SDS011;10880;50.302;18.736;2023-02-21T16:21:18;4.13;;;3.40;;
21438;SDS011;10880;50.302;18.736;2023-02-21T16:24:12;3.17;;;2.87;;
21438;SDS011;10880;50.302;18.736;2023-02-21T16:27:25;2.70;;;2.50;;
21438;SDS011;10880;50.302;18.736;2023-02-21T16:29:49;3.23;;;2.90;;
21438;SDS011;10880;50.302;18.736;2023-02-21T16:32:16;9.47;;;5.80;;
21438;SDS011;10880;50.302;18.736;2023-02-21T16:34:45;45.10;;;17.33;;
21438;SDS011;10880;50.302;18.736;2023-02-21T16:37:12;53.10;;;20.00;;
21438;SDS011;10880;50.302;18.736;2023-02-21T16:39:40;31.00;;;13.10;;
21438;SDS011;10880;50.302;18.736;2023-02-21T16:42:06;18.23;;;8.50;;
21438;SDS011;10880;50.302;18.736;2023-02-21T16:44:33;11.53;;;5.83;;
21438;SDS011;10880;50.302;18.736;2023-02-21T16:47:00;7.13;;;4.93;;
21438;SDS011;10880;50.302;18.736;2023-02-21T16:49:26;7.50;;;4.97;;
21438;SDS011;10880;50.302;18.736;2023-02-21T16:51:53;4.30;;;3.50;;
21438;SDS011;10880;50.302;18.736;2023-02-21T16:54:20;3.30;;;3.00;;
21438;SDS011;10880;50.302;18.736;2023-02-21T16:56:49;4.17;;;3.37;;
21438;SDS011;10880;50.302;18.736;2023-02-21T16:59:18;3.80;;;2.90;;
21438;SDS011;10880;50.302;18.736;2023-02-21T17:01:47;3.30;;;3.00;;
21438;SDS011;10880;50.302;18.736;2023-02-21T17:04:21;3.83;;;3.30;;
21438;SDS011;10880;50.302;18.736;2023-02-21T17:06:52;4.03;;;3.00;;
21438;SDS011;10880;50.302;18.736;2023-02-21T17:09:22;8.27;;;4.23;;
21438;SDS011;10880;50.302;18.736;2023-02-21T17:11:51;5.83;;;3.70;;
21438;SDS011;10880;50.302;18.736;2023-02-21T17:14:20;7.07;;;3.80;;
21438;SDS011;10880;50.302;18.736;2023-02-21T17:16:48;6.60;;;4.10;;
21438;SDS011;10880;50.302;18.736;2023-02-21T17:19:16;8.10;;;4.77;;
21438;SDS011;10880;50.302;18.736;2023-02-21T17:21:51;9.33;;;5.33;;
21438;SDS011;10880;50.302;18.736;2023-02-21T17:24:20;9.50;;;4.97;;
21438;SDS011;10880;50.302;18.736;2023-02-21T17:26:48;6.37;;;4.63;;
21438;SDS011;10880;50.302;18.736;2023-02-21T17:29:24;5.10;;;3.70;;
21438;SDS011;10880;50.302;18.736;2023-02-21T17:31:53;3.63;;;3.10;;
21438;SDS011;10880;50.302;18.736;2023-02-21T17:34:23;4.03;;;3.20;;
21438;SDS011;10880;50.302;18.736;2023-02-21T17:36:50;3.80;;;3.20;;
21438;SDS011;10880;50.302;18.736;2023-02-21T17:39:18;5.43;;;3.60;;
21438;SDS011;10880;50.302;18.736;2023-02-21T17:41:49;5.37;;;4.10;;
21438;SDS011;10880;50.302;18.736;2023-02-21T17:44:16;6.10;;;3.97;;
21438;SDS011;10880;50.302;18.736;2023-02-21T17:46:46;6.63;;;4.03;;
21438;SDS011;10880;50.302;18.736;2023-02-21T17:49:15;6.97;;;4.60;;
21438;SDS011;10880;50.302;18.736;2023-02-21T17:51:42;8.40;;;5.50;;